Time;durP1;ratioP1;P1;durP2;ratioP2;P2;SDS_P1;SDS_P2;PMS_P1;PMS_P2;Temp;Humidity;BMP_temperature;BMP_pressure;BME280_temperature;BME280_humidity;BME280_pressure;Samples;Min_cycle;Max_cycle;Signal;HPM_P1;HPM_P2
2023/06/12 00:01:25;;;;;;;4.35;2.10;;;19.50;91.70;;;;;;5080420;28;20271;-83
2023/06/12 00:03:51;;;;;;;7.55;2.55;;;19.40;91.80;;;;;;5070354;28;20036;-83
2023/06/12 00:06:17;;;;;;;5.63;2.78;;;19.40;91.80;;;;;;5105461;27;20475;-83
2023/06/12 00:08:43;;;;;;;4.22;2.13;;;19.40;92.00;;;;;;5066928;28;20047;-84
2023/06/12 00:11:12;;;;;;;8.75;2.85;;;19.30;92.00;;;;;;5090991;28;20028;-84
2023/06/12 00:13:42;;;;;;;5.13;1.90;;;19.20;92.30;;;;;;5069185;28;20036;-83
2023/06/12 00:16:08;;;;;;;3.33;2.15;;;19.20;92.40;;;;;;5071650;28;20036;-84
2023/06/12 00:18:35;;;;;;;7.28;2.60;;;19.10;92.30;;;;;;5069297;28;20398;-84
2023/06/12 00:21:05;;;;;;;4.25;2.33;;;19.10;92.50;;;;;;5084165;28;20800;-83
2023/06/12 00:23:30;;;;;;;6.18;1.92;;;19.10;92.60;;;;;;5070131;28;20115;-83
2023/06/12 00:25:56;;;;;;;7.70;2.00;;;19.10;92.60;;;;;;5073590;28;20119;-83
2023/06/12 00:28:21;;;;;;;6.03;2.13;;;19.00;92.70;;;;;;5069289;28;20506;-84
2023/06/12 00:30:47;;;;;;;4.90;2.03;;;19.00;92.80;;;;;;5052221;28;20034;-83
2023/06/12 00:33:13;;;;;;;7.20;1.90;;;18.90;92.80;;;;;;5107654;27;20040;-83
2023/06/12 00:35:38;;;;;;;11.07;2.88;;;19.00;92.90;;;;;;5070868;28;20044;-83
2023/06/12 00:38:06;;;;;;;9.32;2.63;;;18.90;93.00;;;;;;5051029;28;20039;-83
2023/06/12 00:40:31;;;;;;;4.60;2.20;;;19.30;93.20;;;;;;5052762;28;20064;-83
2023/06/12 00:42:57;;;;;;;6.95;2.33;;;18.80;93.20;;;;;;5051993;28;20474;-83
2023/06/12 00:45:23;;;;;;;5.32;1.67;;;18.70;93.50;;;;;;5088972;28;20098;-83
2023/06/12 00:47:56;;;;;;;4.53;1.98;;;18.60;93.50;;;;;;5065157;28;20088;-83
2023/06/12 00:50:28;;;;;;;6.10;2.15;;;18.60;93.60;;;;;;5070118;28;20043;-83
2023/06/12 00:52:56;;;;;;;10.63;2.75;;;18.60;93.60;;;;;;5098438;28;20068;-83
2023/06/12 00:55:22;;;;;;;4.07;1.77;;;18.50;93.80;;;;;;5102556;27;20087;-83
2023/06/12 00:57:48;;;;;;;5.53;2.00;;;18.60;93.70;;;;;;5106159;27;20909;-83
2023/06/12 01:00:17;;;;;;;3.70;1.80;;;18.50;93.90;;;;;;5075329;28;20084;-83
2023/06/12 01:02:51;;;;;;;7.18;2.00;;;18.40;93.90;;;;;;5070980;28;20093;-83
2023/06/12 01:05:32;;;;;;;9.43;2.13;;;18.40;94.10;;;;;;5069041;28;20067;-83
2023/06/12 01:08:29;;;;;;;6.70;1.80;;;18.40;94.00;;;;;;5101671;27;20036;-82
2023/06/12 01:11:08;;;;;;;5.00;1.45;;;18.40;94.40;;;;;;5102031;28;20051;-83
2023/06/12 01:13:34;;;;;;;4.18;2.55;;;18.30;94.20;;;;;;5087183;28;20075;-84
2023/06/12 01:16:01;;;;;;;5.63;1.70;;;18.30;94.00;;;;;;5068300;28;20040;-83
2023/06/12 01:18:26;;;;;;;8.02;1.63;;;18.30;94.20;;;;;;5048241;28;20493;-83
2023/06/12 01:20:55;;;;;;;9.30;2.17;;;18.20;94.00;;;;;;5070090;28;20033;-83
2023/06/12 01:23:36;;;;;;;5.38;2.13;;;18.20;94.30;;;;;;5056746;28;20745;-83
2023/06/12 01:26:26;;;;;;;8.38;2.20;;;18.20;94.40;;;;;;5109109;28;20422;-83
2023/06/12 01:29:06;;;;;;;9.93;2.22;;;18.20;94.50;;;;;;5102395;28;20048;-83
2023/06/12 01:31:43;;;;;;;5.63;1.90;;;18.10;94.80;;;;;;5098467;28;20041;-83
2023/06/12 01:34:20;;;;;;;8.85;2.00;;;18.10;94.50;;;;;;5107141;28;20115;-83
2023/06/12 01:36:53;;;;;;;6.93;1.70;;;18.10;94.90;;;;;;5104114;28;20040;-83
2023/06/12 01:39:22;;;;;;;5.60;2.55;;;18.00;94.90;;;;;;5068710;28;20068;-83
2023/06/12 01:41:49;;;;;;;6.32;1.77;;;18.00;94.80;;;;;;5071697;28;20071;-83
2023/06/12 01:44:16;;;;;;;10.48;2.47;;;18.00;94.80;;;;;;5073479;28;20039;-83
2023/06/12 01:46:42;;;;;;;6.82;2.28;;;17.90;94.90;;;;;;5070537;28;20126;-82
2023/06/12 01:49:08;;;;;;;11.88;1.90;;;17.90;95.10;;;;;;5073674;28;20178;-83
2023/06/12 01:51:33;;;;;;;6.55;2.10;;;17.80;95.20;;;;;;5070304;28;20048;-83
2023/06/12 01:54:00;;;;;;;5.57;1.88;;;17.80;95.30;;;;;;5081211;28;20051;-84
2023/06/12 01:56:27;;;;;;;6.53;1.80;;;17.80;95.60;;;;;;5071393;28;20135;-83
2023/06/12 01:58:53;;;;;;;7.47;2.13;;;17.70;95.60;;;;;;5106148;27;20047;-83
2023/06/12 02:01:19;;;;;;;5.40;1.70;;;17.60;96.20;;;;;;5101739;27;20087;-81
2023/06/12 02:03:48;;;;;;;8.05;1.77;;;17.60;96.30;;;;;;5102315;28;20039;-80
2023/06/12 02:06:15;;;;;;;6.68;1.90;;;17.40;96.30;;;;;;5107587;27;20330;-80
2023/06/12 02:08:41;;;;;;;4.78;1.73;;;17.30;96.30;;;;;;5079370;28;20088;-81
2023/06/12 02:11:06;;;;;;;8.15;1.55;;;17.30;96.90;;;;;;5054614;28;20071;-81
2023/06/12 02:13:32;;;;;;;9.10;1.75;;;17.20;97.50;;;;;;5081432;28;20523;-83
2023/06/12 02:15:58;;;;;;;9.85;3.10;;;17.10;97.40;;;;;;5123319;27;20051;-81
2023/06/12 02:18:23;;;;;;;6.80;1.58;;;17.20;97.20;;;;;;5062485;28;20072;-83
2023/06/12 02:20:49;;;;;;;4.25;1.50;;;17.10;97.10;;;;;;5075542;28;20043;-83
2023/06/12 02:23:15;;;;;;;8.02;2.30;;;17.10;97.80;;;;;;5064628;28;20040;-85
2023/06/12 02:25:40;;;;;;;2.30;1.65;;;17.00;98.00;;;;;;5075545;28;20040;-83
2023/06/12 02:28:07;;;;;;;9.80;2.17;;;16.90;98.80;;;;;;5059174;28;20067;-83
2023/06/12 02:30:32;;;;;;;6.25;1.95;;;17.00;98.00;;;;;;5064271;28;20029;-84
2023/06/12 02:32:58;;;;;;;7.32;2.28;;;16.90;98.00;;;;;;5078962;28;20067;-83
2023/06/12 02:35:24;;;;;;;7.40;2.50;;;16.90;97.90;;;;;;5086607;28;20127;-83
2023/06/12 02:37:49;;;;;;;4.75;1.42;;;16.90;98.30;;;;;;5068967;28;20503;-85
2023/06/12 02:40:15;;;;;;;6.10;2.10;;;16.80;98.30;;;;;;5071195;28;20445;-85
2023/06/12 02:42:40;;;;;;;12.30;3.17;;;16.60;98.20;;;;;;5073986;28;20028;-85
2023/06/12 02:45:07;;;;;;;6.50;2.30;;;16.40;98.60;;;;;;5075947;28;20124;-85
2023/06/12 02:47:32;;;;;;;6.10;2.10;;;16.30;98.80;;;;;;5060338;28;20115;-85
2023/06/12 02:49:58;;;;;;;9.05;2.35;;;16.20;98.90;;;;;;5074752;28;20120;-85
2023/06/12 02:52:23;;;;;;;4.63;2.10;;;16.10;99.10;;;;;;5105931;27;20041;-85
2023/06/12 02:54:49;;;;;;;6.32;2.20;;;16.10;99.10;;;;;;5066996;28;20052;-85
2023/06/12 02:57:15;;;;;;;9.82;2.00;;;16.10;99.30;;;;;;5074520;28;20044;-85
2023/06/12 02:59:41;;;;;;;6.18;2.20;;;16.10;99.60;;;;;;5056537;28;20064;-84
2023/06/12 03:02:07;;;;;;;9.15;2.83;;;16.10;99.50;;;;;;5073544;28;20060;-85
2023/06/12 03:04:35;;;;;;;9.57;2.55;;;16.10;99.60;;;;;;5075690;28;20039;-85
2023/06/12 03:07:05;;;;;;;7.97;2.25;;;16.00;99.60;;;;;;5105612;27;20479;-85
2023/06/12 03:09:32;;;;;;;4.55;2.13;;;16.10;99.80;;;;;;5105746;27;20141;-85
2023/06/12 03:11:58;;;;;;;4.70;2.30;;;16.00;99.80;;;;;;5098217;27;20037;-84
2023/06/12 03:14:24;;;;;;;8.45;2.17;;;16.00;99.90;;;;;;5108782;27;20123;-85
2023/06/12 03:16:50;;;;;;;3.90;1.70;;;15.90;99.90;;;;;;5054840;28;20047;-85
2023/06/12 03:19:16;;;;;;;4.85;1.83;;;15.90;99.90;;;;;;5105454;27;20047;-85
2023/06/12 03:21:41;;;;;;;12.30;4.00;;;15.90;99.90;;;;;;5072262;28;20613;-85
2023/06/12 03:24:07;;;;;;;5.68;2.03;;;15.90;99.90;;;;;;5108180;27;20120;-85
2023/06/12 03:26:33;;;;;;;9.20;2.15;;;16.00;99.90;;;;;;5070861;28;20116;-85
2023/06/12 03:29:00;;;;;;;4.85;2.05;;;16.00;99.90;;;;;;5071271;28;20063;-85
2023/06/12 03:31:27;;;;;;;8.98;2.55;;;16.00;99.90;;;;;;5104896;27;20052;-86
2023/06/12 03:33:56;;;;;;;11.70;2.53;;;16.00;99.90;;;;;;5057221;28;20036;-85
2023/06/12 03:36:25;;;;;;;6.90;2.20;;;16.00;99.90;;;;;;5068668;28;20048;-85
2023/06/12 03:38:51;;;;;;;4.25;1.83;;;15.90;99.90;;;;;;5061725;28;20044;-85
2023/06/12 03:41:20;;;;;;;8.65;2.97;;;15.90;99.90;;;;;;5105950;27;20044;-85
2023/06/12 03:43:46;;;;;;;5.13;2.20;;;15.80;99.90;;;;;;5104093;27;20045;-85
2023/06/12 03:46:11;;;;;;;5.78;2.50;;;15.80;99.90;;;;;;5070083;28;20051;-84
2023/06/12 03:48:37;;;;;;;4.80;2.13;;;15.80;99.90;;;;;;5059727;28;20552;-85
2023/06/12 03:51:03;;;;;;;8.63;2.15;;;15.80;99.90;;;;;;5072466;28;20510;-86
2023/06/12 03:53:28;;;;;;;11.50;2.38;;;15.80;99.90;;;;;;5085891;28;20506;-85
2023/06/12 03:55:54;;;;;;;5.53;2.13;;;15.80;99.90;;;;;;5071452;28;20032;-85
2023/06/12 03:58:20;;;;;;;9.98;1.98;;;15.80;99.90;;;;;;5064066;28;20047;-85
2023/06/12 04:00:47;;;;;;;10.40;2.67;;;15.90;99.90;;;;;;5100951;27;20041;-85
2023/06/12 04:03:20;;;;;;;9.63;2.13;;;15.80;99.90;;;;;;5065228;28;20040;-85
2023/06/12 04:05:47;;;;;;;10.13;2.10;;;15.90;99.90;;;;;;5071691;28;20117;-85
2023/06/12 04:08:13;;;;;;;7.97;1.83;;;15.90;99.90;;;;;;5075889;28;20090;-85
2023/06/12 04:10:38;;;;;;;7.30;2.20;;;16.00;99.90;;;;;;5069279;28;20031;-85
2023/06/12 04:13:05;;;;;;;4.72;2.00;;;16.10;99.90;;;;;;5074289;28;20487;-85
2023/06/12 04:15:30;;;;;;;6.28;2.15;;;16.20;99.90;;;;;;5073330;28;20040;-85
2023/06/12 04:17:57;;;;;;;9.60;2.20;;;16.30;99.90;;;;;;5071727;28;20069;-85
2023/06/12 04:20:26;;;;;;;6.25;2.03;;;16.30;99.90;;;;;;5070430;28;20066;-85
2023/06/12 04:22:52;;;;;;;8.38;2.17;;;16.40;99.90;;;;;;5071458;28;20123;-85
2023/06/12 04:25:18;;;;;;;8.40;2.38;;;16.60;99.90;;;;;;5065505;28;20075;-85
2023/06/12 04:27:47;;;;;;;5.20;2.47;;;16.70;99.90;;;;;;5065503;28;20509;-85
2023/06/12 04:30:31;;;;;;;7.35;1.80;;;17.30;99.90;;;;;;5072976;28;20036;-86
2023/06/12 04:32:57;;;;;;;6.05;2.47;;;18.50;99.90;;;;;;5105902;27;20490;-85
2023/06/12 04:35:56;;;;;;;5.20;2.22;;;19.00;99.90;;;;;;5102774;28;20083;-85
2023/06/12 04:38:23;;;;;;;9.98;2.47;;;19.60;99.90;;;;;;5102374;27;20046;-86
2023/06/12 04:40:54;;;;;;;5.20;2.45;;;20.10;99.80;;;;;;5096553;28;20657;-85
2023/06/12 04:43:21;;;;;;;4.93;2.53;;;20.50;98.90;;;;;;5033099;28;20051;-85
2023/06/12 04:45:47;;;;;;;7.47;2.05;;;20.60;98.50;;;;;;5064261;28;20097;-85
2023/06/12 04:48:13;;;;;;;4.68;2.33;;;21.40;98.10;;;;;;5057798;28;20036;-85
2023/06/12 04:50:40;;;;;;;5.00;2.10;;;22.40;97.40;;;;;;5096870;27;20036;-85
2023/06/12 04:53:06;;;;;;;9.48;2.53;;;23.00;96.70;;;;;;5100520;27;20548;-85
2023/06/12 04:55:32;;;;;;;6.45;1.98;;;23.50;96.10;;;;;;5064586;28;20052;-85
2023/06/12 04:57:59;;;;;;;10.88;2.60;;;24.10;95.60;;;;;;5083019;28;20394;-85
2023/06/12 05:00:28;;;;;;;4.07;2.03;;;24.80;95.10;;;;;;5068857;28;20041;-85
2023/06/12 05:02:55;;;;;;;9.48;3.35;;;24.70;94.60;;;;;;5072558;28;20052;-85
2023/06/12 05:05:23;;;;;;;4.55;2.05;;;24.70;94.00;;;;;;5104485;27;20048;-87
2023/06/12 05:08:07;;;;;;;8.48;2.28;;;25.10;93.50;;;;;;5063301;28;20479;-88
2023/06/12 05:10:40;;;;;;;9.85;2.55;;;24.70;92.80;;;;;;5054657;28;20155;-86
2023/06/12 05:13:10;;;;;;;5.20;2.92;;;23.90;93.30;;;;;;5083443;28;20049;-86
2023/06/12 05:15:41;;;;;;;6.53;2.70;;;23.40;93.80;;;;;;5065071;28;20040;-87
2023/06/12 05:18:08;;;;;;;6.93;2.30;;;22.80;94.70;;;;;;5049242;28;20061;-86
2023/06/12 05:20:34;;;;;;;7.20;2.63;;;23.30;94.80;;;;;;5049489;28;20028;-86
2023/06/12 05:22:59;;;;;;;4.60;2.42;;;23.90;94.00;;;;;;5066452;28;20487;-86
2023/06/12 05:25:25;;;;;;;18.88;2.58;;;23.60;92.90;;;;;;5067708;28;20043;-86
2023/06/12 05:27:51;;;;;;;4.82;2.20;;;23.30;93.70;;;;;;5048548;28;20446;-84
2023/06/12 05:30:17;;;;;;;10.88;2.60;;;23.20;93.90;;;;;;5100974;28;20508;-83
2023/06/12 05:32:42;;;;;;;5.95;2.40;;;22.90;94.00;;;;;;5068529;28;20092;-86
2023/06/12 05:35:08;;;;;;;11.30;2.58;;;22.70;94.50;;;;;;5059145;28;20036;-85
2023/06/12 05:37:53;;;;;;;4.78;2.50;;;22.60;94.50;;;;;;5061379;28;20036;-88
2023/06/12 05:40:27;;;;;;;7.13;2.63;;;22.60;94.40;;;;;;5048576;28;21663;-87
2023/06/12 05:42:53;;;;;;;8.87;2.40;;;22.40;94.60;;;;;;5074409;28;20036;-87
2023/06/12 05:45:21;;;;;;;4.57;2.50;;;22.40;94.90;;;;;;5085662;28;20112;-86
2023/06/12 05:47:47;;;;;;;7.78;2.65;;;22.30;94.40;;;;;;5048060;28;20773;-87
2023/06/12 05:50:13;;;;;;;5.32;3.13;;;22.30;94.90;;;;;;5077811;28;20040;-86
2023/06/12 05:52:38;;;;;;;16.02;3.72;;;22.50;94.90;;;;;;5053049;28;20045;-87
2023/06/12 05:55:04;;;;;;;4.28;2.20;;;22.60;94.90;;;;;;5042278;28;20039;-86
2023/06/12 05:57:30;;;;;;;7.00;2.53;;;22.70;95.20;;;;;;5070916;28;20052;-88
2023/06/12 05:59:56;;;;;;;7.22;2.50;;;22.80;94.90;;;;;;5053044;28;20051;-89
2023/06/12 06:02:21;;;;;;;8.25;2.70;;;22.90;95.10;;;;;;5052873;28;20040;-87
2023/06/12 06:04:47;;;;;;;8.02;2.63;;;23.00;94.90;;;;;;5069552;28;20065;-86
2023/06/12 06:07:13;;;;;;;7.68;2.63;;;23.20;95.00;;;;;;5102315;28;20074;-87
2023/06/12 06:09:39;;;;;;;6.35;2.42;;;23.00;94.50;;;;;;5086273;28;20041;-88
2023/06/12 06:12:05;;;;;;;5.28;2.30;;;23.20;94.80;;;;;;5069556;28;20058;-88
2023/06/12 06:14:31;;;;;;;3.80;2.85;;;23.50;94.80;;;;;;5086061;28;20086;-87
2023/06/12 06:16:56;;;;;;;6.95;2.70;;;23.60;94.90;;;;;;5052932;28;20044;-87
2023/06/12 06:19:22;;;;;;;8.13;2.47;;;23.70;94.20;;;;;;5050339;28;20072;-87
2023/06/12 06:21:47;;;;;;;5.10;2.47;;;24.00;94.70;;;;;;5055287;28;20041;-87
2023/06/12 06:24:13;;;;;;;8.73;3.25;;;24.00;93.60;;;;;;5062701;28;20059;-88
2023/06/12 06:26:39;;;;;;;7.75;2.75;;;24.10;93.50;;;;;;5081901;28;20045;-86
2023/06/12 06:29:04;;;;;;;3.75;2.38;;;24.20;93.70;;;;;;5053992;28;20119;-87
2023/06/12 06:31:30;;;;;;;8.70;2.80;;;24.30;94.10;;;;;;5055014;28;20040;-87
2023/06/12 06:33:56;;;;;;;5.45;2.42;;;24.30;94.60;;;;;;5088967;28;20036;-86
2023/06/12 06:36:23;;;;;;;5.03;2.58;;;24.80;93.90;;;;;;5088025;28;20032;-89
2023/06/12 06:38:48;;;;;;;10.05;2.90;;;24.70;93.50;;;;;;5089670;28;20029;-86
2023/06/12 06:41:14;;;;;;;9.02;2.13;;;24.80;92.90;;;;;;5072577;28;20189;-86
2023/06/12 06:43:39;;;;;;;6.00;2.70;;;25.00;92.80;;;;;;5086500;28;20036;-88
2023/06/12 06:46:05;;;;;;;5.05;2.75;;;24.90;92.80;;;;;;5055981;28;20068;-86
2023/06/12 06:48:30;;;;;;;11.30;3.10;;;25.00;92.90;;;;;;5072479;28;20119;-87
2023/06/12 06:50:57;;;;;;;5.93;2.70;;;25.20;92.70;;;;;;5091104;28;20505;-88
2023/06/12 06:53:22;;;;;;;11.63;2.95;;;25.40;92.70;;;;;;5089175;28;20036;-86
2023/06/12 06:55:48;;;;;;;7.03;2.70;;;25.30;93.10;;;;;;5072107;28;20093;-88
2023/06/12 06:58:14;;;;;;;11.75;3.25;;;25.50;92.60;;;;;;5055945;28;20079;-87
2023/06/12 07:00:42;;;;;;;8.43;2.78;;;25.30;93.10;;;;;;5072142;28;20039;-87
2023/06/12 07:03:08;;;;;;;14.75;2.90;;;25.60;93.60;;;;;;5072022;28;20108;-87
2023/06/12 07:05:41;;;;;;;7.43;2.85;;;25.60;93.00;;;;;;5087170;28;20127;-87
2023/06/12 07:08:08;;;;;;;11.50;3.08;;;25.90;92.70;;;;;;5100255;28;20083;-87
2023/06/12 07:10:33;;;;;;;10.18;2.50;;;26.30;92.90;;;;;;5104985;28;20036;-87
2023/06/12 07:13:05;;;;;;;7.25;2.60;;;26.00;92.70;;;;;;5053776;28;20043;-87
2023/06/12 07:15:30;;;;;;;8.80;2.47;;;25.90;92.50;;;;;;5079247;28;20040;-89
2023/06/12 07:17:56;;;;;;;4.95;2.75;;;26.10;92.50;;;;;;5085130;28;20047;-87
2023/06/12 07:20:22;;;;;;;4.50;2.33;;;26.10;92.30;;;;;;5088410;28;20045;-85
2023/06/12 07:22:47;;;;;;;7.75;2.65;;;26.30;92.20;;;;;;5078234;28;20029;-86
2023/06/12 07:25:14;;;;;;;6.80;2.22;;;26.40;92.40;;;;;;5097054;28;20115;-86
2023/06/12 07:27:42;;;;;;;8.38;2.33;;;26.20;92.40;;;;;;5089204;28;20115;-87
2023/06/12 07:30:15;;;;;;;10.23;2.72;;;26.40;92.00;;;;;;5062653;28;20075;-86
2023/06/12 07:32:43;;;;;;;7.30;2.65;;;26.50;92.10;;;;;;5059060;28;20051;-85
2023/06/12 07:35:12;;;;;;;5.43;3.10;;;26.70;91.60;;;;;;5046181;28;20040;-86
2023/06/12 07:45:18;;;;;;;6.13;2.60;;;26.70;92.60;;;;;;5071887;28;20139;-85
2023/06/12 07:51:57;;;;;;;9.77;3.58;;;26.70;92.70;;;;;;5032857;28;20229;-86
2023/06/12 07:55:05;;;;;;;7.18;2.78;;;26.60;92.50;;;;;;5003013;28;20516;-86
2023/06/12 08:56:18;;;;;;;12.45;2.75;;;27.10;91.40;;;;;;5068043;28;20139;-86
2023/06/12 08:59:41;;;;;;;4.85;3.17;;;26.80;91.80;;;;;;5048695;28;20510;-88
2023/06/12 09:02:18;;;;;;;8.95;3.17;;;26.90;92.00;;;;;;5029651;28;20048;-86
2023/06/12 09:05:06;;;;;;;5.03;2.83;;;27.00;91.70;;;;;;5046772;28;20053;-86
2023/06/12 09:07:36;;;;;;;7.00;2.72;;;27.30;91.80;;;;;;5067478;28;20187;-85
2023/06/12 09:10:01;;;;;;;6.32;3.13;;;27.50;92.50;;;;;;5067177;28;20044;-85
2023/06/12 09:12:29;;;;;;;6.03;3.10;;;27.50;92.10;;;;;;5086892;28;20036;-85
2023/06/12 09:14:55;;;;;;;6.80;3.10;;;27.30;91.50;;;;;;5052658;28;20029;-87
2023/06/12 09:17:26;;;;;;;10.85;3.60;;;27.50;92.70;;;;;;5069477;28;20076;-85
2023/06/12 09:19:52;;;;;;;6.15;4.38;;;27.50;92.00;;;;;;5084349;28;20069;-84
2023/06/12 09:22:17;;;;;;;6.78;3.70;;;27.40;92.50;;;;;;5051402;28;20044;-84
2023/06/12 09:24:43;;;;;;;5.90;3.38;;;27.70;91.30;;;;;;5069384;28;20039;-85
2023/06/12 09:27:09;;;;;;;5.82;3.20;;;27.80;91.40;;;;;;5068667;28;20394;-85
2023/06/12 09:29:42;;;;;;;5.72;3.45;;;28.00;91.80;;;;;;5052593;28;20044;-85
2023/06/12 09:32:11;;;;;;;7.18;4.00;;;28.10;92.10;;;;;;5098923;28;20047;-84
2023/06/12 09:34:44;;;;;;;12.70;3.30;;;28.00;92.00;;;;;;5083841;28;20078;-85
2023/06/12 09:37:14;;;;;;;5.65;3.45;;;28.10;92.00;;;;;;5067455;28;20527;-85
2023/06/12 09:39:39;;;;;;;10.50;3.17;;;28.00;91.40;;;;;;5047219;28;20041;-85
2023/06/12 09:42:06;;;;;;;11.38;4.25;;;28.30;91.80;;;;;;5069458;28;20037;-85
2023/06/12 09:44:31;;;;;;;4.38;2.88;;;28.20;91.50;;;;;;5066041;28;20169;-85
2023/06/12 09:47:01;;;;;;;6.63;3.65;;;28.10;87.20;;;;;;5067077;28;20119;-86
2023/06/12 09:49:31;;;;;;;10.35;3.20;;;28.10;85.70;;;;;;5062377;28;20041;-85
2023/06/12 09:52:01;;;;;;;8.85;3.58;;;28.30;86.30;;;;;;5053081;28;20039;-84
2023/06/12 09:54:30;;;;;;;6.15;3.30;;;28.60;83.30;;;;;;5102655;28;20174;-84
2023/06/12 09:56:58;;;;;;;3.58;3.22;;;28.40;85.20;;;;;;5072725;28;20044;-84
2023/06/12 09:59:27;;;;;;;7.70;3.78;;;28.70;85.80;;;;;;5089719;28;20041;-84
2023/06/12 10:02:03;;;;;;;7.10;3.83;;;28.60;85.00;;;;;;5068076;28;20029;-83
2023/06/12 10:04:45;;;;;;;6.15;3.83;;;28.50;85.70;;;;;;5050707;28;20044;-84
2023/06/12 10:07:23;;;;;;;4.38;3.45;;;29.00;87.90;;;;;;5101699;28;20032;-83
2023/06/12 10:09:50;;;;;;;4.13;3.63;;;28.70;86.70;;;;;;5067986;28;20057;-83
2023/06/12 10:12:17;;;;;;;6.82;3.60;;;29.00;86.30;;;;;;5066124;28;20123;-84
2023/06/12 10:14:44;;;;;;;12.10;4.50;;;28.80;86.70;;;;;;5068580;28;20043;-84
2023/06/12 10:17:10;;;;;;;5.07;3.78;;;29.00;85.00;;;;;;5055546;28;20048;-84
2023/06/12 10:19:40;;;;;;;5.57;3.60;;;29.10;88.20;;;;;;5070205;28;20037;-84
2023/06/12 10:22:06;;;;;;;11.02;3.95;;;28.90;83.10;;;;;;5084244;28;20098;-85
2023/06/12 10:24:33;;;;;;;6.95;3.67;;;28.80;84.90;;;;;;5092923;28;20029;-85
2023/06/12 10:27:00;;;;;;;8.70;3.78;;;28.70;85.20;;;;;;5087255;28;20064;-85
2023/06/12 10:29:30;;;;;;;11.50;4.05;;;28.90;84.00;;;;;;5048094;28;20044;-85
2023/06/12 10:32:07;;;;;;;7.32;3.70;;;28.80;84.10;;;;;;5053233;28;20132;-85
2023/06/12 10:34:34;;;;;;;8.27;4.40;;;28.70;82.30;;;;;;5048176;28;20127;-85
2023/06/12 10:37:29;;;;;;;10.88;4.32;;;28.80;83.90;;;;;;5053089;28;20048;-85
2023/06/12 10:40:17;;;;;;;6.95;3.75;;;28.80;81.20;;;;;;5078150;28;20174;-86
2023/06/12 10:43:00;;;;;;;4.90;4.10;;;28.70;82.20;;;;;;5076049;28;20124;-85
2023/06/12 10:45:29;;;;;;;6.20;4.22;;;28.60;82.00;;;;;;5068623;28;20119;-85
2023/06/12 10:48:04;;;;;;;5.43;3.88;;;28.90;82.80;;;;;;5099879;28;20040;-86
2023/06/12 10:50:34;;;;;;;14.20;4.05;;;29.10;77.50;;;;;;5090656;28;20131;-86
2023/06/12 10:53:04;;;;;;;8.57;4.30;;;29.40;78.50;;;;;;5066695;28;20557;-84
2023/06/12 10:55:31;;;;;;;4.13;3.70;;;29.40;82.70;;;;;;5064838;28;20044;-85
2023/06/12 10:58:02;;;;;;;4.43;3.58;;;29.20;75.90;;;;;;5056370;28;20492;-84
2023/06/12 11:00:33;;;;;;;7.18;3.53;;;29.30;75.40;;;;;;5089173;28;20119;-86
2023/06/12 11:03:11;;;;;;;4.07;3.45;;;29.40;74.70;;;;;;5058155;28;20117;-86
2023/06/12 11:05:55;;;;;;;6.10;4.00;;;29.40;74.90;;;;;;5071126;28;20089;-83
2023/06/12 11:08:23;;;;;;;6.18;3.60;;;29.80;74.70;;;;;;5070607;28;20066;-84
2023/06/12 11:11:10;;;;;;;5.55;3.92;;;29.90;75.20;;;;;;5066620;28;20082;-84
2023/06/12 11:13:44;;;;;;;8.48;4.45;;;29.70;73.70;;;;;;5075352;28;20055;-86
2023/06/12 11:31:07;;;;;;;4.68;3.60;;;29.50;76.60;;;;;;5031325;28;20032;-86
2023/06/12 11:33:50;;;;;;;14.20;5.05;;;29.90;75.50;;;;;;5031194;28;20038;-86
2023/06/12 11:40:29;;;;;;;4.80;4.38;;;29.10;72.40;;;;;;5043037;28;20884;-87
2023/06/12 11:43:54;;;;;;;;;;;;;;;;;;;;;
2023/06/12 11:58:39;;;;;;;11.05;4.35;;;29.50;69.30;;;;;;4946625;29;20037;-86
2023/06/12 12:05:29;;;;;;;5.03;4.03;;;30.00;69.60;;;;;;5004971;28;20056;-86
2023/06/12 12:08:36;;;;;;;5.63;4.25;;;29.60;67.10;;;;;;4990677;28;20053;-86
2023/06/12 12:12:34;;;;;;;7.18;4.57;;;29.60;71.20;;;;;;4961655;28;20042;-85
2023/06/12 12:15:07;;;;;;;9.90;4.45;;;29.30;64.80;;;;;;4932084;28;20047;-84
2023/06/12 12:17:40;;;;;;;4.60;4.20;;;29.50;70.00;;;;;;5005324;28;20087;-85
2023/06/12 12:20:30;;;;;;;7.15;4.55;;;29.70;69.10;;;;;;5087211;28;20040;-85
2023/06/12 12:23:20;;;;;;;5.88;5.28;;;29.40;67.80;;;;;;5076186;28;20402;-85
2023/06/12 12:25:47;;;;;;;5.05;4.57;;;29.20;68.80;;;;;;5040349;28;20182;-85
2023/06/12 12:28:13;;;;;;;7.07;4.82;;;28.80;68.60;;;;;;5036983;28;20043;-84
2023/06/12 12:30:57;;;;;;;4.80;4.40;;;28.60;68.50;;;;;;5075624;28;20041;-85
2023/06/12 12:33:25;;;;;;;4.32;3.92;;;28.60;69.40;;;;;;5081170;28;20072;-85
2023/06/12 12:36:40;;;;;;;;;;;;;;;;;;;;;
2023/06/12 12:39:13;;;;;;;5.70;4.50;;;29.10;68.40;;;;;;5066902;28;20044;-85
2023/06/12 12:41:48;;;;;;;5.55;5.03;;;29.20;68.10;;;;;;5056144;28;20048;-86
2023/06/12 12:44:35;;;;;;;6.35;5.10;;;29.60;69.50;;;;;;5059305;28;20052;-85
2023/06/12 12:47:11;;;;;;;6.03;4.40;;;29.50;66.60;;;;;;5087227;28;20395;-85
2023/06/12 12:49:48;;;;;;;7.15;5.47;;;29.50;68.70;;;;;;5082220;28;20116;-85
2023/06/12 12:52:16;;;;;;;;;;;29.20;67.10;;;;;;5071187;28;20513;-84
2023/06/12 12:54:42;;;;;;;8.57;4.97;;;29.10;67.80;;;;;;5085176;28;20385;-86
2023/06/12 12:57:11;;;;;;;4.97;4.55;;;29.50;66.60;;;;;;5052950;28;20048;-86
2023/06/12 12:59:51;;;;;;;11.38;4.82;;;29.30;66.40;;;;;;5103062;28;20040;-86
2023/06/12 13:02:17;;;;;;;5.60;5.07;;;29.40;65.80;;;;;;5082216;28;20040;-86
2023/06/12 13:04:46;;;;;;;7.07;4.80;;;28.90;64.20;;;;;;5051803;28;20051;-84
2023/06/12 13:07:12;;;;;;;6.30;4.90;;;28.70;65.40;;;;;;5053057;28;20037;-85
2023/06/12 13:09:40;;;;;;;8.80;4.68;;;28.60;66.20;;;;;;5053302;28;20055;-86
2023/06/12 13:12:14;;;;;;;9.10;4.57;;;29.10;67.20;;;;;;5053857;28;20485;-85
2023/06/12 13:14:53;;;;;;;5.55;4.45;;;29.10;67.60;;;;;;5071190;28;20085;-85
2023/06/12 13:17:19;;;;;;;5.40;4.20;;;29.00;65.80;;;;;;5049891;28;20045;-84
2023/06/12 13:19:53;;;;;;;5.13;4.57;;;28.80;67.00;;;;;;5049583;28;20041;-85
2023/06/12 13:22:49;;;;;;;5.82;4.90;;;28.70;67.00;;;;;;5054166;28;20484;-85
2023/06/12 13:25:17;;;;;;;6.35;4.10;;;29.10;66.00;;;;;;5066951;28;20524;-87
2023/06/12 13:27:43;;;;;;;6.90;4.63;;;29.00;68.10;;;;;;5083265;28;20114;-88
2023/06/12 13:30:15;;;;;;;4.82;4.45;;;29.20;68.10;;;;;;5072677;28;20620;-88
2023/06/12 13:32:46;;;;;;;6.00;5.40;;;29.10;68.90;;;;;;5056426;28;20036;-87
2023/06/12 13:35:30;;;;;;;7.75;4.95;;;28.70;66.90;;;;;;5090392;28;20510;-88
2023/06/12 13:38:15;;;;;;;8.30;4.72;;;28.30;66.20;;;;;;5091357;28;20137;-86
2023/06/12 13:40:50;;;;;;;5.07;4.68;;;28.20;66.90;;;;;;5072997;28;20044;-88
2023/06/12 13:43:16;;;;;;;;;;;28.20;67.20;;;;;;5090091;28;20046;-86
2023/06/12 13:46:13;;;;;;;12.20;4.85;;;28.20;65.60;;;;;;5051478;28;19925;-86
2023/06/12 13:48:39;;;;;;;4.28;3.97;;;28.40;67.70;;;;;;5068830;28;20513;-86
2023/06/12 13:51:10;;;;;;;7.07;5.15;;;28.40;67.50;;;;;;5053628;28;20033;-84
2023/06/12 13:53:59;;;;;;;7.50;4.85;;;28.20;66.60;;;;;;5078305;28;20591;-85
2023/06/12 13:56:28;;;;;;;5.05;4.57;;;28.10;67.20;;;;;;5065684;28;20040;-86
2023/06/12 13:59:02;;;;;;;6.00;4.32;;;28.10;68.50;;;;;;5055966;28;20025;-85
2023/06/12 14:01:46;;;;;;;4.80;4.15;;;28.10;69.70;;;;;;5055479;28;20094;-85
2023/06/12 14:04:12;;;;;;;7.13;4.18;;;28.50;67.30;;;;;;5044761;28;20047;-85
2023/06/12 14:06:59;;;;;;;7.25;4.75;;;28.80;65.80;;;;;;5082521;28;20044;-86
2023/06/12 14:09:28;;;;;;;10.57;4.77;;;29.00;69.30;;;;;;5091694;28;20082;-85
2023/06/12 14:12:00;;;;;;;7.32;4.60;;;29.30;66.90;;;;;;5090609;28;20504;-85
2023/06/12 14:14:26;;;;;;;7.60;4.95;;;29.60;67.80;;;;;;5069108;28;20043;-85
2023/06/12 14:16:52;;;;;;;9.10;4.85;;;29.70;66.60;;;;;;5088884;28;20502;-85
2023/06/12 14:19:28;;;;;;;5.97;4.68;;;29.70;66.20;;;;;;5068132;28;20030;-84
2023/06/12 14:22:15;;;;;;;5.22;4.65;;;29.40;67.80;;;;;;5084645;28;20038;-86
2023/06/12 14:24:55;;;;;;;5.55;4.28;;;29.00;65.90;;;;;;5078526;28;20440;-84
2023/06/12 14:27:29;;;;;;;9.90;4.65;;;29.00;66.90;;;;;;5060836;28;20068;-85
2023/06/12 14:29:57;;;;;;;4.97;4.47;;;28.90;68.30;;;;;;5088714;28;20033;-86
2023/06/12 14:32:25;;;;;;;7.65;4.90;;;28.90;67.40;;;;;;5073200;28;20047;-85
2023/06/12 14:35:50;;;;;;;;;;;;;;;;;;;;;
2023/06/12 14:39:11;;;;;;;6.82;4.53;;;28.70;65.60;;;;;;4990855;28;20076;-88
2023/06/12 14:41:45;;;;;;;8.10;4.53;;;28.30;67.90;;;;;;4992644;28;20493;-86
2023/06/12 14:44:40;;;;;;;5.35;4.85;;;28.30;68.00;;;;;;5105898;28;20041;-85
2023/06/12 14:47:27;;;;;;;6.82;4.05;;;28.40;69.20;;;;;;5075195;28;20057;-84
2023/06/12 14:50:22;;;;;;;9.05;4.25;;;28.50;68.40;;;;;;5071095;28;20475;-85
2023/06/12 14:52:48;;;;;;;5.13;4.72;;;28.50;69.10;;;;;;5094637;28;20156;-86
2023/06/12 14:55:52;;;;;;;9.65;5.15;;;28.50;68.50;;;;;;5069638;28;20062;-84
2023/06/12 15:06:11;;;;;;;8.05;4.80;;;28.40;67.80;;;;;;5066293;28;20078;-85